createdAt,value
2017-10-21T00:01:35.190Z,97791.44
2017-10-21T00:04:02.819Z,97786.41
2017-10-21T00:06:30.492Z,97785.77
2017-10-21T00:08:58.427Z,97794.39
2017-10-21T00:11:26.064Z,97793.48
2017-10-21T00:13:53.637Z,97788.78
2017-10-21T00:16:22.348Z,97757.16
2017-10-21T00:18:50.556Z,97779.08
2017-10-21T00:21:18.209Z,97747.91
2017-10-21T00:23:45.756Z,97771.25
2017-10-21T00:26:14.357Z,97778.81
2017-10-21T00:28:42.424Z,97781.88
2017-10-21T00:31:11.741Z,97778.20
2017-10-21T00:33:40.517Z,97773.80
2017-10-21T00:36:09.936Z,97770.48
2017-10-21T00:38:40.675Z,97771.98
2017-10-21T00:41:10.738Z,97771.34
2017-10-21T00:43:42.445Z,97768.06
2017-10-21T00:46:10.823Z,97770.95
2017-10-21T00:48:40.166Z,97768.14
2017-10-21T00:51:10.593Z,97762.48
2017-10-21T00:53:38.871Z,97756.36
2017-10-21T00:56:06.429Z,97749.91
2017-10-21T00:58:34.093Z,97750.77
2017-10-21T01:01:01.735Z,97742.56
2017-10-21T01:03:30.476Z,97751.66
2017-10-21T01:05:58.958Z,97753.58
2017-10-21T01:08:26.604Z,97752.30
2017-10-21T01:10:57.841Z,97748.47
2017-10-21T01:13:28.780Z,97750.45
2017-10-21T01:15:57.472Z,97753.00
2017-10-21T01:18:25.061Z,97756.02
2017-10-21T01:20:52.625Z,97750.37
2017-10-21T01:23:21.574Z,97753.88
2017-10-21T01:25:49.398Z,97759.58
2017-10-21T01:28:17.271Z,97757.77
2017-10-21T01:30:45.036Z,97759.22
2017-10-21T01:33:12.735Z,97755.64
2017-10-21T01:35:41.433Z,97764.08
2017-10-21T01:38:09.121Z,97758.72
2017-10-21T01:40:36.805Z,97759.36
2017-10-21T01:43:05.035Z,97751.09
2017-10-21T01:45:33.541Z,97752.98
2017-10-21T01:48:01.955Z,97750.19
2017-10-21T01:50:29.546Z,97748.44
2017-10-21T01:52:57.225Z,97748.98
2017-10-21T01:55:24.982Z,97757.95
2017-10-21T01:57:52.818Z,97749.59
2017-10-21T02:00:21.122Z,97737.25
2017-10-21T02:02:49.663Z,97747.88
2017-10-21T02:05:17.540Z,97748.09
2017-10-21T02:07:45.188Z,97746.48
2017-10-21T02:10:12.839Z,97751.44
2017-10-21T02:12:40.562Z,97755.64
2017-10-21T02:15:08.345Z,97754.55
2017-10-21T02:17:37.463Z,97729.84
2017-10-21T02:20:05.472Z,97760.52
2017-10-21T02:22:34.852Z,97757.27
2017-10-21T02:25:02.531Z,97758.77
2017-10-21T02:27:30.291Z,97762.06
2017-10-21T02:29:57.863Z,97748.12
2017-10-21T02:32:25.794Z,97745.41
2017-10-21T02:34:53.613Z,97745.41
2017-10-21T02:37:21.208Z,97742.86
2017-10-21T02:39:49.091Z,97742.30
2017-10-21T02:42:17.470Z,97735.86
2017-10-21T02:44:45.026Z,97731.30
2017-10-21T02:47:13.343Z,97739.54
2017-10-21T02:49:41.525Z,97741.45
2017-10-21T02:52:15.647Z,97744.63
2017-10-21T02:54:44.253Z,97749.48
2017-10-21T02:57:12.275Z,97747.83
2017-10-21T02:59:40.050Z,97746.29
2017-10-21T03:02:11.098Z,97744.20
2017-10-21T03:04:38.765Z,97740.75
2017-10-21T03:07:06.546Z,97740.17
2017-10-21T03:09:37.013Z,97730.09
2017-10-21T03:12:07.760Z,97722.42
2017-10-21T03:14:35.608Z,97724.66
2017-10-21T03:17:03.275Z,97722.26
2017-10-21T03:19:30.886Z,97727.62
2017-10-21T03:21:58.496Z,97716.09
2017-10-21T03:24:26.186Z,97725.89
2017-10-21T03:26:53.833Z,97729.20
2017-10-21T03:29:22.742Z,97725.91
2017-10-21T03:31:51.420Z,97728.33
2017-10-21T03:34:19.231Z,97725.70
2017-10-21T03:36:48.132Z,97663.70
2017-10-21T03:39:15.799Z,97728.57
2017-10-21T03:41:44.121Z,97724.37
2017-10-21T03:44:11.718Z,97721.33
2017-10-21T03:46:39.490Z,97721.92
2017-10-21T03:49:07.036Z,97722.73
2017-10-21T03:51:38.045Z,97713.23
2017-10-21T03:54:05.967Z,97720.86
2017-10-21T03:56:33.586Z,97741.71
2017-10-21T03:59:01.492Z,97718.92
2017-10-21T04:01:29.154Z,97721.23
2017-10-21T04:03:56.881Z,97728.16
2017-10-21T04:06:24.473Z,97728.38
2017-10-21T04:08:55.548Z,97735.41
2017-10-21T04:11:23.019Z,97736.52
2017-10-21T04:13:50.641Z,97734.06
2017-10-21T04:16:18.631Z,97730.67
2017-10-21T04:18:46.390Z,97721.41
2017-10-21T04:21:14.075Z,97724.41
2017-10-21T04:23:41.654Z,97732.36
2017-10-21T04:26:10.010Z,97730.45
2017-10-21T04:28:37.664Z,97737.16
2017-10-21T04:31:05.293Z,97737.59
2017-10-21T04:33:34.606Z,97740.41
2017-10-21T04:36:09.057Z,97739.30
2017-10-21T04:38:37.439Z,97743.55
2017-10-21T04:41:09.437Z,97734.35
2017-10-21T04:43:43.866Z,97733.59
2017-10-21T04:46:16.614Z,97738.23
2017-10-21T04:48:47.947Z,97737.32
2017-10-21T04:51:15.688Z,97736.20
2017-10-21T04:53:45.008Z,97732.30
2017-10-21T04:56:13.354Z,97728.86
2017-10-21T04:58:41.754Z,97716.99
2017-10-21T05:01:10.324Z,97724.86
2017-10-21T05:03:38.665Z,97681.80
2017-10-21T05:06:07.103Z,97729.69
2017-10-21T05:08:34.978Z,97701.58
2017-10-21T05:11:04.339Z,97723.48
2017-10-21T05:13:34.033Z,97733.86
2017-10-21T05:16:02.696Z,97735.55
2017-10-21T05:18:31.276Z,97734.05
2017-10-21T05:20:58.999Z,97744.95
2017-10-21T05:23:27.411Z,97736.50
2017-10-21T05:25:55.459Z,97735.34
2017-10-21T05:28:23.428Z,97738.58
2017-10-21T05:30:51.339Z,97734.64
2017-10-21T05:33:21.522Z,97736.49
2017-10-21T05:35:49.178Z,97721.01
2017-10-21T05:38:17.274Z,97743.47
2017-10-21T05:40:44.940Z,97751.37
2017-10-21T05:43:12.790Z,97742.17
2017-10-21T05:45:40.415Z,97743.80
2017-10-21T05:48:08.105Z,97743.56
2017-10-21T05:50:36.334Z,97743.39
2017-10-21T05:53:04.017Z,97749.09
2017-10-21T05:55:32.364Z,97747.55
2017-10-21T05:58:00.212Z,97743.59
2017-10-21T06:00:27.829Z,97739.75
2017-10-21T06:02:55.429Z,97743.00
2017-10-21T06:05:23.212Z,97746.30
2017-10-21T06:07:50.978Z,97747.45
2017-10-21T06:10:18.559Z,97750.06
2017-10-21T06:12:46.166Z,97748.91
2017-10-21T06:15:14.086Z,97750.01
2017-10-21T06:17:41.808Z,97747.75
2017-10-21T06:20:09.514Z,97753.15
2017-10-21T06:22:37.163Z,97757.50
2017-10-21T06:25:04.981Z,97738.30
2017-10-21T06:27:32.633Z,97764.78
2017-10-21T06:30:00.426Z,97756.61
2017-10-21T06:32:28.395Z,97758.17
2017-10-21T06:34:56.031Z,97767.25
2017-10-21T06:37:24.088Z,97759.92
2017-10-21T06:39:51.603Z,97766.13
2017-10-21T06:42:19.430Z,97758.54
2017-10-21T06:44:47.498Z,97768.62
2017-10-21T06:47:15.012Z,97769.98
2017-10-21T06:49:42.592Z,97774.64
2017-10-21T06:52:10.086Z,97753.97
2017-10-21T06:54:37.913Z,97765.63
2017-10-21T06:57:06.825Z,97760.44
2017-10-21T06:59:34.519Z,97759.16
2017-10-21T07:02:02.074Z,97766.64
2017-10-21T07:04:29.770Z,97765.27
2017-10-21T07:06:57.388Z,97769.96
2017-10-21T07:09:26.940Z,97769.16
2017-10-21T07:11:56.682Z,97771.86
2017-10-21T07:14:24.265Z,97771.84
2017-10-21T07:16:51.962Z,97774.08
2017-10-21T07:19:19.637Z,97774.27
2017-10-21T07:21:47.419Z,97773.69
2017-10-21T07:24:15.228Z,97776.19
2017-10-21T07:26:43.022Z,97769.13
2017-10-21T07:29:11.100Z,97768.37
2017-10-21T07:31:38.656Z,97771.47
2017-10-21T07:34:06.201Z,97769.52
2017-10-21T07:36:33.771Z,97768.72
2017-10-21T07:39:06.812Z,97774.79
2017-10-21T07:41:34.390Z,97767.37
2017-10-21T07:44:01.970Z,97769.80
2017-10-21T07:46:29.519Z,97772.75
2017-10-21T07:48:57.017Z,97768.74
2017-10-21T07:51:24.546Z,97769.44
2017-10-21T07:53:52.094Z,97768.69
2017-10-21T07:56:19.629Z,97768.05
2017-10-21T07:58:47.152Z,97772.18
2017-10-21T08:01:15.663Z,97764.88
2017-10-21T08:03:43.237Z,97768.23
2017-10-21T08:06:10.766Z,97760.56
2017-10-21T08:08:38.348Z,97762.94
2017-10-21T08:11:05.914Z,97758.77
2017-10-21T08:13:33.598Z,97761.15
2017-10-21T08:16:01.125Z,97766.27
2017-10-21T08:18:28.634Z,97766.11
2017-10-21T08:20:56.763Z,97764.95
2017-10-21T08:23:24.263Z,97769.84
2017-10-21T08:25:52.740Z,97761.09
2017-10-21T08:28:22.183Z,97768.04
2017-10-21T08:30:49.762Z,97768.65
2017-10-21T08:33:17.465Z,97764.78
2017-10-21T08:35:45.104Z,97766.47
2017-10-21T08:38:12.682Z,97767.29
2017-10-21T08:40:40.189Z,97765.06
2017-10-21T08:43:07.836Z,97774.02
2017-10-21T08:45:35.335Z,97742.67
2017-10-21T08:48:03.813Z,97767.97
2017-10-21T08:50:32.723Z,97768.88
2017-10-21T08:53:00.861Z,97761.38
2017-10-21T08:55:28.468Z,97755.91
2017-10-21T09:00:30.773Z,97759.53
2017-10-21T09:02:58.290Z,97759.94
2017-10-21T09:05:25.950Z,97759.45
2017-10-21T09:07:53.549Z,97751.53
2017-10-21T09:10:22.045Z,97755.05
2017-10-21T09:12:49.659Z,97754.56
2017-10-21T09:15:17.614Z,97743.77
2017-10-21T09:17:45.192Z,97746.78
2017-10-21T09:20:12.736Z,97741.34
2017-10-21T09:22:40.290Z,97743.23
2017-10-21T09:25:08.310Z,97732.94
2017-10-21T09:27:35.893Z,97734.59
2017-10-21T09:30:03.604Z,97699.43
2017-10-21T09:32:31.300Z,97738.85
2017-10-21T09:34:58.882Z,97734.58
2017-10-21T09:37:26.393Z,97734.11
2017-10-21T09:39:54.889Z,97741.77
2017-10-21T09:42:22.442Z,97736.07
2017-10-21T09:44:50.003Z,97740.27
2017-10-21T09:47:17.822Z,97734.00
2017-10-21T09:49:45.346Z,97736.40
2017-10-21T09:52:13.323Z,97712.36
2017-10-21T09:54:40.931Z,97730.66
2017-10-21T09:57:08.525Z,97722.14
2017-10-21T09:59:36.022Z,97726.53
2017-10-21T10:02:04.258Z,97712.77
2017-10-21T10:04:31.879Z,97713.77
2017-10-21T10:06:59.477Z,97709.77
2017-10-21T10:09:27.076Z,97714.94
2017-10-21T10:11:54.672Z,97705.55
2017-10-21T10:14:22.229Z,97711.52
2017-10-21T10:16:49.737Z,97707.36
2017-10-21T10:19:17.245Z,97709.78
2017-10-21T10:21:44.755Z,97706.20
2017-10-21T10:24:12.258Z,97715.35
2017-10-21T10:26:39.783Z,97714.36
2017-10-21T10:29:08.232Z,97717.70
2017-10-21T10:31:35.818Z,97721.52
2017-10-21T10:34:03.335Z,97665.81
2017-10-21T10:36:30.963Z,97713.03
2017-10-21T10:38:58.520Z,97715.45
2017-10-21T10:41:26.289Z,97712.27
2017-10-21T10:43:53.794Z,97705.52
2017-10-21T10:46:21.407Z,97703.39
2017-10-21T10:48:49.074Z,97696.62
2017-10-21T10:51:16.870Z,97689.84
2017-10-21T10:53:44.434Z,97696.37
2017-10-21T10:56:11.949Z,97686.05
2017-10-21T10:58:39.739Z,97677.30
2017-10-21T11:01:07.285Z,97674.17
2017-10-21T11:03:34.983Z,97666.89
2017-10-21T11:06:02.598Z,97647.64
2017-10-21T11:08:30.102Z,97667.52
2017-10-21T11:10:57.699Z,97662.91
2017-10-21T11:13:25.210Z,97660.34
2017-10-21T11:15:53.020Z,97656.66
2017-10-21T11:18:20.562Z,97649.84
2017-10-21T11:20:48.991Z,97651.42
2017-10-21T11:23:16.501Z,97651.20
2017-10-21T11:25:44.123Z,97650.44
2017-10-21T11:28:12.553Z,97654.33
2017-10-21T11:30:40.301Z,97617.31
2017-10-21T11:33:08.836Z,97649.42
2017-10-21T11:35:36.398Z,97650.22
2017-10-21T11:38:03.967Z,97651.03
2017-10-21T11:40:31.737Z,97643.45
2017-10-21T11:42:59.251Z,97645.42
2017-10-21T11:45:26.894Z,97633.18
2017-10-21T11:47:54.529Z,97639.23
2017-10-21T11:50:22.105Z,97632.29
2017-10-21T11:52:49.667Z,97630.74
2017-10-21T11:55:17.419Z,97637.84
2017-10-21T11:57:45.679Z,97637.95
2017-10-21T12:00:13.256Z,97629.23
2017-10-21T12:02:40.853Z,97623.30
2017-10-21T12:05:08.534Z,97626.84
2017-10-21T12:07:36.063Z,97628.11
2017-10-21T12:10:04.062Z,97625.31
2017-10-21T12:12:32.125Z,97625.02
2017-10-21T12:15:00.270Z,97614.83
2017-10-21T12:17:28.222Z,97615.28
2017-10-21T12:19:56.884Z,97614.27
2017-10-21T12:22:26.003Z,97617.03
2017-10-21T12:24:53.726Z,97612.38
2017-10-21T12:27:21.821Z,97613.73
2017-10-21T12:29:49.773Z,97608.56
2017-10-21T12:32:33.364Z,97605.48
2017-10-21T12:35:03.498Z,97567.84
2017-10-21T12:37:36.092Z,97606.11
2017-10-21T12:40:05.139Z,97601.94
2017-10-21T12:42:33.923Z,97603.92
2017-10-21T12:45:02.286Z,97602.88
2017-10-21T12:47:30.555Z,97595.36
2017-10-21T12:50:02.622Z,97604.21
2017-10-21T12:52:31.356Z,97606.65
2017-10-21T12:54:58.992Z,97603.11
2017-10-21T12:57:27.222Z,97602.45
2017-10-21T12:59:54.961Z,97601.97
2017-10-21T13:02:22.778Z,97595.95
2017-10-21T13:04:52.370Z,97600.86
2017-10-21T13:07:20.149Z,97606.06
2017-10-21T13:09:47.761Z,97598.42
2017-10-21T13:12:15.365Z,97606.09
2017-10-21T13:14:42.894Z,97603.98
2017-10-21T13:17:10.432Z,97595.05
2017-10-21T13:19:38.918Z,97599.27
2017-10-21T13:22:06.456Z,97610.69
2017-10-21T13:24:33.970Z,97604.11
2017-10-21T13:27:01.521Z,97604.14
2017-10-21T13:29:29.033Z,97603.81
2017-10-21T13:31:56.555Z,97599.10
2017-10-21T13:34:24.221Z,97595.97
2017-10-21T13:36:51.839Z,97601.33
2017-10-21T13:39:19.397Z,97598.11
2017-10-21T13:41:46.953Z,97603.00
2017-10-21T13:44:14.497Z,97599.23
2017-10-21T13:46:42.030Z,97608.66
2017-10-21T13:49:09.577Z,97607.12
2017-10-21T13:51:37.111Z,97602.42
2017-10-21T13:54:04.617Z,97593.30
2017-10-21T13:56:32.214Z,97585.36
2017-10-21T13:58:59.710Z,97585.37
2017-10-21T14:01:27.487Z,97592.89
2017-10-21T14:03:55.175Z,97596.84
2017-10-21T14:06:22.773Z,97595.17
2017-10-21T14:08:50.377Z,97590.38
2017-10-21T14:11:17.981Z,97594.20
2017-10-21T14:13:45.998Z,97585.96
2017-10-21T14:16:13.601Z,97589.20
2017-10-21T14:18:41.313Z,97592.62
2017-10-21T14:21:08.888Z,97589.59
2017-10-21T14:23:37.429Z,97590.87
2017-10-21T14:26:04.950Z,97590.98
2017-10-21T14:28:32.544Z,97585.16
2017-10-21T14:31:00.150Z,97575.30
2017-10-21T14:33:27.717Z,97573.72
2017-10-21T14:35:55.262Z,97565.33
2017-10-21T14:38:22.754Z,97552.05
2017-10-21T14:40:51.263Z,97565.62
2017-10-21T14:43:18.864Z,97574.11
2017-10-21T14:45:46.467Z,97566.16
2017-10-21T14:48:14.007Z,97575.94
2017-10-21T14:50:41.512Z,97572.48
2017-10-21T14:53:09.048Z,97580.77
2017-10-21T14:55:36.718Z,97582.86
2017-10-21T14:58:04.214Z,97579.23
2017-10-21T15:00:31.890Z,97586.28
2017-10-21T15:02:59.460Z,97575.48
2017-10-21T15:05:26.968Z,97585.66
2017-10-21T15:07:54.560Z,97588.14
2017-10-21T15:10:22.120Z,97591.47
2017-10-21T15:12:49.894Z,97595.61
2017-10-21T15:15:18.310Z,97583.11
2017-10-21T15:17:45.911Z,97583.30
2017-10-21T15:20:13.401Z,97591.90
2017-10-21T15:22:40.916Z,97592.91
2017-10-21T15:25:08.501Z,97583.98
2017-10-21T15:27:36.078Z,97580.20
2017-10-21T15:30:03.732Z,97589.81
2017-10-21T15:32:32.308Z,97584.59
2017-10-21T15:34:59.908Z,97577.79
2017-10-21T15:37:27.713Z,97573.91
2017-10-21T15:39:56.458Z,97561.44
2017-10-21T15:42:24.018Z,97564.78
2017-10-21T15:44:51.554Z,97570.31
2017-10-21T15:47:19.117Z,97566.42
2017-10-21T15:49:46.665Z,97562.55
2017-10-21T15:52:14.406Z,97554.70
2017-10-21T15:54:41.942Z,97552.55
2017-10-21T15:57:09.480Z,97552.89
2017-10-21T15:59:37.363Z,97547.97
2017-10-21T16:02:04.913Z,97547.33
2017-10-21T16:04:32.471Z,97549.77
2017-10-21T16:07:00.015Z,97558.81
2017-10-21T16:09:27.585Z,97567.08
2017-10-21T16:11:55.111Z,97565.72
2017-10-21T16:14:23.365Z,97561.16
2017-10-21T16:16:51.253Z,97557.55
2017-10-21T16:19:18.928Z,97553.34
2017-10-21T16:21:46.567Z,97549.78
2017-10-21T16:24:14.070Z,97539.56
2017-10-21T16:26:41.633Z,97548.95
2017-10-21T16:29:09.138Z,97547.39
2017-10-21T16:31:37.718Z,97537.61
2017-10-21T16:34:05.404Z,97545.65
2017-10-21T16:36:33.596Z,97545.09
2017-10-21T16:39:03.205Z,97556.05
2017-10-21T16:41:31.102Z,97558.18
2017-10-21T16:43:59.369Z,97561.55
2017-10-21T16:46:27.870Z,97567.14
2017-10-21T16:48:55.560Z,97574.59
2017-10-21T16:51:24.718Z,97603.87
2017-10-21T16:53:52.549Z,97616.77
2017-10-21T16:56:20.504Z,97502.64
2017-10-21T16:58:49.388Z,97624.19
2017-10-21T17:01:17.149Z,97634.23
2017-10-21T17:03:45.670Z,97640.08
2017-10-21T17:06:13.869Z,97641.05
2017-10-21T17:08:41.680Z,97654.19
2017-10-21T17:11:09.202Z,97662.81
2017-10-21T17:13:38.758Z,97657.80
2017-10-21T17:16:07.430Z,97672.78
2017-10-21T17:18:35.319Z,97689.53
2017-10-21T17:21:03.356Z,97670.83
2017-10-21T17:23:32.509Z,97690.19
2017-10-21T17:26:05.153Z,97692.11
2017-10-21T17:28:33.824Z,97668.66
2017-10-21T17:31:01.479Z,97662.97
2017-10-21T17:33:29.222Z,97677.80
2017-10-21T17:35:57.020Z,97687.86
2017-10-21T17:38:25.185Z,97686.41
2017-10-21T17:40:53.222Z,97706.40
2017-10-21T17:43:21.126Z,97699.39
2017-10-21T17:45:50.008Z,97707.22
2017-10-21T17:48:17.801Z,97711.53
2017-10-21T17:50:45.766Z,97719.06
2017-10-21T17:53:13.356Z,97720.02
2017-10-21T17:55:41.718Z,97719.39
2017-10-21T17:58:09.573Z,97714.20
2017-10-21T18:00:37.124Z,97709.35
2017-10-21T18:03:05.894Z,97674.56
2017-10-21T18:05:33.960Z,97715.88
2017-10-21T18:08:02.192Z,97719.28
2017-10-21T18:10:30.024Z,97719.30
2017-10-21T18:12:57.581Z,97718.34
2017-10-21T18:15:25.109Z,97724.08
2017-10-21T18:17:52.795Z,97720.23
2017-10-21T18:20:20.928Z,97733.71
2017-10-21T18:22:48.764Z,97730.75
2017-10-21T18:25:16.551Z,97744.41
2017-10-21T18:27:44.621Z,97764.09
2017-10-21T18:30:13.098Z,97796.51
2017-10-21T18:32:41.388Z,97804.95
2017-10-21T18:35:09.601Z,97816.42
2017-10-21T18:37:38.378Z,97801.40
2017-10-21T18:40:06.355Z,97818.67
2017-10-21T18:42:34.403Z,97819.98
2017-10-21T18:45:04.363Z,97817.34
2017-10-21T18:47:33.303Z,97838.84
2017-10-21T18:50:02.716Z,97840.86
2017-10-21T18:52:30.438Z,97853.64
2017-10-21T18:54:59.497Z,97847.70
2017-10-21T18:57:27.347Z,97865.41
2017-10-21T18:59:55.932Z,97877.92
2017-10-21T19:02:24.164Z,97884.48
2017-10-21T19:04:53.005Z,97885.73
2017-10-21T19:07:22.026Z,97896.18
2017-10-21T19:09:50.892Z,97893.05
2017-10-21T19:12:20.088Z,97896.52
2017-10-21T19:14:48.635Z,97896.44
2017-10-21T19:17:16.889Z,97891.77
2017-10-21T19:19:44.542Z,97890.24
2017-10-21T19:22:12.590Z,97887.05
2017-10-21T19:24:41.131Z,97891.64
2017-10-21T19:27:09.482Z,97890.53
2017-10-21T19:29:37.357Z,97886.42
2017-10-21T19:32:04.955Z,97877.18
2017-10-21T19:34:32.573Z,97899.05
2017-10-21T19:37:00.398Z,97845.38
2017-10-21T19:39:27.930Z,97873.89
2017-10-21T19:41:55.506Z,97879.48
2017-10-21T19:44:23.438Z,97875.25
2017-10-21T19:46:52.134Z,97827.77
2017-10-21T19:49:21.240Z,97873.19
2017-10-21T19:51:49.374Z,97816.44
2017-10-21T19:54:16.873Z,97869.53
2017-10-21T19:56:45.416Z,97867.02
2017-10-21T19:59:13.655Z,97863.97
2017-10-21T20:01:41.365Z,97878.45
2017-10-21T20:04:09.071Z,97871.38
2017-10-21T20:06:36.682Z,97877.80
2017-10-21T20:09:04.603Z,97883.49
2017-10-21T20:11:33.254Z,97884.20
2017-10-21T20:14:01.990Z,97901.20
2017-10-21T20:16:30.038Z,97906.80
2017-10-21T20:18:57.880Z,97919.42
2017-10-21T20:21:29.001Z,97912.27
2017-10-21T20:23:56.701Z,97893.19
2017-10-21T20:26:25.147Z,97879.04
2017-10-21T20:28:52.693Z,97891.27
2017-10-21T20:31:21.221Z,97909.48
2017-10-21T20:33:49.394Z,97893.22
2017-10-21T20:36:16.968Z,97891.84
2017-10-21T20:38:46.039Z,97887.16
2017-10-21T20:41:14.101Z,97890.21
2017-10-21T20:43:42.491Z,97879.09
2017-10-21T20:46:10.364Z,97868.66
2017-10-21T20:48:37.951Z,97858.83
2017-10-21T20:51:06.511Z,97878.79
2017-10-21T20:53:34.377Z,97866.77
2017-10-21T20:56:02.721Z,97848.48
2017-10-21T20:58:31.335Z,97883.10
2017-10-21T21:00:59.015Z,97867.06
2017-10-21T21:03:27.112Z,97867.16
2017-10-21T21:05:54.793Z,97867.09
2017-10-21T21:08:23.451Z,97872.98
2017-10-21T21:10:52.144Z,97844.22
2017-10-21T21:13:22.067Z,97855.02
2017-10-21T21:15:49.764Z,97854.16
2017-10-21T21:18:17.881Z,97860.59
2017-10-21T21:20:45.504Z,97854.31
2017-10-21T21:23:15.864Z,97853.61
2017-10-21T21:25:45.148Z,97862.25
2017-10-21T21:28:13.042Z,97855.78
2017-10-21T21:30:42.707Z,97842.04
2017-10-21T21:33:10.706Z,97838.17
2017-10-21T21:35:40.314Z,97831.25
2017-10-21T21:38:09.559Z,97845.89
2017-10-21T21:40:37.224Z,97853.60
2017-10-21T21:43:04.942Z,97848.90
2017-10-21T21:45:32.477Z,97869.44
2017-10-21T21:48:00.101Z,97884.01
2017-10-21T21:50:29.160Z,97865.70
2017-10-21T21:52:56.846Z,97872.70
2017-10-21T21:55:25.715Z,97884.52
2017-10-21T21:57:53.367Z,97866.81
2017-10-21T22:00:21.053Z,97824.30
2017-10-21T22:02:49.308Z,97827.20
2017-10-21T22:05:17.648Z,97830.46
2017-10-21T22:07:46.444Z,97837.48
2017-10-21T22:10:14.045Z,97828.08
2017-10-21T22:12:41.761Z,97815.13
2017-10-21T22:15:09.305Z,97804.53
2017-10-21T22:17:37.430Z,97798.98
2017-10-21T22:20:05.908Z,97803.27
2017-10-21T22:22:33.686Z,97804.12
2017-10-21T22:25:01.779Z,97821.42
2017-10-21T22:27:31.341Z,97848.64
2017-10-21T22:29:58.953Z,97861.93
2017-10-21T22:32:27.131Z,97806.19
2017-10-21T22:34:55.314Z,97844.48
2017-10-21T22:37:22.931Z,97861.39
2017-10-21T22:39:50.535Z,97880.22
2017-10-21T22:42:18.188Z,97864.55
2017-10-21T22:44:46.019Z,97881.36
2017-10-21T22:47:14.534Z,97887.92
2017-10-21T22:49:42.168Z,97883.11
2017-10-21T22:52:10.585Z,97889.05
2017-10-21T22:54:38.186Z,97885.13
2017-10-21T22:57:06.073Z,97890.41
2017-10-21T22:59:33.870Z,97882.63
2017-10-21T23:02:01.433Z,97875.06
2017-10-21T23:04:28.976Z,97884.31
2017-10-21T23:06:56.661Z,97883.13
2017-10-21T23:09:24.308Z,97888.75
2017-10-21T23:11:51.851Z,97884.06
2017-10-21T23:14:19.525Z,97883.38
2017-10-21T23:16:47.165Z,97830.30
2017-10-21T23:19:14.699Z,97888.70
2017-10-21T23:21:42.235Z,97900.98
2017-10-21T23:24:09.877Z,97902.34
2017-10-21T23:26:38.362Z,97899.77
2017-10-21T23:29:09.766Z,97908.64
2017-10-21T23:31:37.283Z,97908.91
2017-10-21T23:34:05.161Z,97901.77
2017-10-21T23:36:32.758Z,97905.07
2017-10-21T23:39:00.365Z,97902.81
2017-10-21T23:41:28.705Z,97907.95
2017-10-21T23:43:58.559Z,97907.25
2017-10-21T23:46:27.646Z,97906.24
2017-10-21T23:48:55.268Z,97903.94
2017-10-21T23:51:22.900Z,97896.95
2017-10-21T23:53:50.481Z,97902.45
2017-10-21T23:56:18.161Z,97893.39
2017-10-21T23:58:46.533Z,97893.78
